Aeroporto :
LOGIN :

Iscrizione | Disclaimer

   EN    FR    IT 

 










Sommario :    VFR   VFR Marginale   IFR   IFR Intensivo   IFR Molto Intensivo
Visibilità : 
Base nubi : 
>= 8 km
>= 3000ft
5 / 8 km
1000 / 3000 ft
1500m / 5 km
500 / 1000 ft
800 / 1500m
200 / 500 ft
< 800m
< 200 ft
Simboli :   Temporali  Nebbia  Neve Forte  Precipitazioni Forti  Vento > 20 kt
SIGMETs :   Varie  Temporali  Ghiacco  Turbolenza  Onda orograficha  Ceneri Vulcaniche






- Altitudine del aeroporto : 16 ft
- Codice IATA : EAS


LESO - San Sebastian Fuenterrabia

ULTIMO METAR :
  • 190730Z 23003KT 180V290 9999 BKN025 BKN043 19/15 Q1014

METARs OBSOLETI :
  • 190700Z 24004KT 150V310 9999 SCT025 BKN038 19/16 Q1014
  • 190630Z 22004KT 180V280 9999 SCT027 BKN035 18/17 Q1014
  • 190600Z 22005KT 190V260 9999 SCT030 18/17 Q1013
  • 190530Z VRB01KT 9999 SCT038 17/16 Q1013
  • 190500Z 21004KT 9999 FEW030 16/16 Q1013
  • 190430Z VRB01KT 9999 FEW030 17/16 Q1012
  • 190400Z 21003KT 180V280 9999 FEW030 17/16 Q1012
  • 190330Z AUTO VRB01KT CAVOK 18/16 Q1012
  • 190300Z AUTO 22003KT 180V260 CAVOK 19/16 Q1012

TAF TAF LESO
Valido dal 19 a 06 ore il 20 a 06 ore UTC


190500Z 1906/2006 26008KT 9999 FEW030 TX23/1912Z TN17/2005Z
PROB30
TEMPO 1906/1910 BKN010
PROB40 1917/1924 3000 SHRA SCT060TCU
PROB30
TEMPO 1918/1924 1500 TSRA SCT060CB
PROB30
TEMPO 2000/2006 3000 SHRA BKN010 SCT030TCU



MetMap, La meteo Aeronautica in un colpo d'occhio ! - Copyright ORBIFLY Dicembre 2007 - Disclaimer

ORBIFLY MET'MAP TEAM :

Programmazione e sviluppo : Alexandra Zaïnal
Concezione : Baudouin d'Aumeries
Supporto tecnico e logistico : Manuel Goepfert
Aiuto : Marc-Olivier Méhu
Aiuto per la traduzione : Arnaldo La Scala




FONTI E CREDITI :

   NOAA